Alsofarkasdmajor, Hungary

6:25 AM CEST on March 26, 2017 (GMT +0200)
Szolnok | | Change Station

Elev 322 ft 47.12 °N, 20.24 °E | Updated 40 minutes ago

Mostly Cloudy
Mostly Cloudy
41 °F
Feels Like 38 °F
N
5
Wind Variable Wind from NNW

Today
High -- | Low -- °F
--% Chance of Precip.
Yesterday
High -- | Low -- °F
Precip. -- in
Pressure 30.04 in
Visibility -9999.0 miles
Clouds
Windchill 38 °F
Dew Point 32 °F
Humidity 70%
Rainfall 0.00 in
Snow Depth Not available.
6:32 AM 7:03 PM
Waning Crescent, 5% visible
METAR LHSN 260345Z 33004KT CAVOK 05/M00 Q1017 NOSIG RMK BLU
Pressure 30.04 in
Visibility -9999.0 miles
Clouds
Windchill 38 °F
Dew Point 32 °F
Humidity 70%
Rainfall 0.00 in
Snow Depth Not available.
6:32 AM 7:03 PM
Waning Crescent, 5% visible
METAR LHSN 260345Z 33004KT CAVOK 05/M00 Q1017 NOSIG RMK BLU

Get Severe Weather Alerts

Thanks for signing up!

Be on the lookout for a verification email in your inbox.

You'll start receiving the daily forecast at 8 AM.

×

10-Day Weather Forecast

×

Almanac

Astronomy

Mar. 26, 2017 Rise Set
Actual Time
Civil Twilight
Nautical Twilight
Astronomical Twilight
Moon
Length of Visible Light
Length of Day
Tomorrow will be .
, % of the Moon is Illuminated

Today's Extremes

Country Highs Country Lows

Community

WunderPhotos

Upload Photos

1,962,540 photos uploaded!

WunderBlog® & News

Nearby

Air Quality

  Air Quality AQ Index Pollutant
Not available.

Snow Depth

Station Depth Elevation

Earthquake Activity

City Distance Mag. Time & Date
Minimum magnitude displayed is 2.5.

Earthquake Activity

City Distance Mag. Time & Date
Minimum magnitude displayed is 2.5.

Coastal Water Temperatures

Place Temperature

Stations

Nearby Weather Stations

Station Location Temp. Windchill Dew Point Humidity Wind Precip. Elev Updated Type